KDLN/DLN METAR and TAF weather

Enter ICAO airport designator
Station Type Date Time Source
KDLN METAR 2020/07/05 16:53 UTC NOAA

KDLN 051653Z AUTO 00000KT 10SM CLR 18/07 A3017 RMK AO2 SLP172 T01830067


Station Type Date Time Source
KDLN Decoded METAR 2020/07/05 16:53 UTC NOAA

DILLON AIRPORT, MT, United States (KDLN) 45-15N 112-33W 1591M
Jul 05, 2020 - 12:53 PM EDT / 2020.07.05 1653 UTC
Wind: Calm:0
Visibility: 10 mile(s):0
Sky conditions: clear
Temperature: 64.9 F (18.3 C)
Dew Point: 44.1 F (6.7 C)
Relative Humidity: 46%
Pressure (altimeter): 30.17 in. Hg (1021 hPa)
ob: KDLN 051653Z AUTO 00000KT 10SM CLR 18/07 A3017 RMK AO2 SLP172 T01830067
cycle: 17

Station Type Date Time Source
KDLN TAF UTC NOAA

Error!

Example: see airport list